createdAt,value
2019-03-08T00:00:54.193Z,74.23
2019-03-08T00:03:21.400Z,74.03
2019-03-08T00:05:48.480Z,73.46
2019-03-08T00:08:16.065Z,73.25
2019-03-08T00:10:43.242Z,72.77
2019-03-08T00:13:10.445Z,72.75
2019-03-08T00:15:37.957Z,72.46
2019-03-08T00:18:05.145Z,72.66
2019-03-08T00:20:32.195Z,72.20
2019-03-08T00:22:59.371Z,71.39
2019-03-08T00:25:26.547Z,71.79
2019-03-08T00:27:53.751Z,71.39
2019-03-08T00:30:21.235Z,70.67
2019-03-08T00:32:48.469Z,71.49
2019-03-08T00:35:15.606Z,71.42
2019-03-08T00:37:42.913Z,71.67
2019-03-08T00:40:10.523Z,72.08
2019-03-08T00:42:37.816Z,71.81
2019-03-08T00:45:05.752Z,71.63
2019-03-08T00:47:33.174Z,71.05
2019-03-08T00:50:00.345Z,71.34
2019-03-08T00:52:27.826Z,71.55
2019-03-08T00:54:55.351Z,71.52
2019-03-08T00:57:22.548Z,71.93
2019-03-08T00:59:49.844Z,72.73
2019-03-08T01:02:17.055Z,73.58
2019-03-08T01:04:44.506Z,73.16
2019-03-08T01:07:11.958Z,72.90
2019-03-08T01:09:39.626Z,73.59
2019-03-08T01:12:07.252Z,73.92
2019-03-08T01:14:34.436Z,74.82
2019-03-08T01:17:01.728Z,75.26
2019-03-08T01:19:28.881Z,75.32
2019-03-08T01:21:56.058Z,75.32
2019-03-08T01:24:23.263Z,75.74
2019-03-08T01:26:50.418Z,76.47
2019-03-08T01:29:17.720Z,76.32
2019-03-08T01:31:45.808Z,77.01
2019-03-08T01:34:12.950Z,76.92
2019-03-08T01:36:40.882Z,77.15
2019-03-08T01:39:08.982Z,77.31
2019-03-08T01:41:36.179Z,77.07
2019-03-08T01:44:03.550Z,76.15
2019-03-08T01:46:30.772Z,74.73
2019-03-08T01:48:57.924Z,74.91
2019-03-08T01:51:25.138Z,74.76
2019-03-08T01:53:52.556Z,75.11
2019-03-08T01:56:19.732Z,74.81
2019-03-08T01:58:46.946Z,74.97
2019-03-08T02:01:14.181Z,75.31
2019-03-08T02:03:41.340Z,74.41
2019-03-08T02:06:08.427Z,74.04
2019-03-08T02:08:35.648Z,73.41
2019-03-08T02:11:03.001Z,72.91
2019-03-08T02:13:30.197Z,72.26
2019-03-08T02:15:57.715Z,72.85
2019-03-08T02:18:24.866Z,72.30
2019-03-08T02:20:52.378Z,72.58
2019-03-08T02:23:19.647Z,73.04
2019-03-08T02:25:47.021Z,72.97
2019-03-08T02:28:14.238Z,73.34
2019-03-08T02:30:41.433Z,72.00
2019-03-08T02:33:08.749Z,71.27
2019-03-08T02:35:35.824Z,72.12
2019-03-08T02:38:03.037Z,71.10
2019-03-08T02:40:36.983Z,69.67
2019-03-08T02:43:06.492Z,69.17
2019-03-08T02:45:33.728Z,69.69
2019-03-08T02:48:00.819Z,70.12
2019-03-08T02:50:28.326Z,68.89
2019-03-08T02:52:55.618Z,69.06
2019-03-08T02:55:22.879Z,69.71
2019-03-08T02:57:50.500Z,69.81
2019-03-08T03:00:18.158Z,67.48
2019-03-08T03:02:45.511Z,66.59
2019-03-08T03:05:13.002Z,66.41
2019-03-08T03:07:40.228Z,65.88
2019-03-08T03:10:07.526Z,65.43
2019-03-08T03:12:35.040Z,65.35
2019-03-08T03:15:02.211Z,66.24
2019-03-08T03:17:29.753Z,66.61
2019-03-08T03:19:57.220Z,67.40
2019-03-08T03:22:24.404Z,66.78
2019-03-08T03:24:51.582Z,67.97
2019-03-08T03:27:18.807Z,68.92
2019-03-08T03:29:46.160Z,69.26
2019-03-08T03:32:13.637Z,70.46
2019-03-08T03:34:40.878Z,71.01
2019-03-08T03:37:08.036Z,71.49
2019-03-08T03:39:35.243Z,71.95
2019-03-08T03:42:02.919Z,71.44
2019-03-08T03:44:30.133Z,71.44
2019-03-08T03:46:57.631Z,72.04
2019-03-08T03:49:24.834Z,72.04
2019-03-08T03:51:51.981Z,72.70
2019-03-08T03:54:19.225Z,72.94
2019-03-08T03:56:46.389Z,72.01
2019-03-08T03:59:13.582Z,72.21
2019-03-08T04:01:44.043Z,72.66
2019-03-08T04:04:11.558Z,73.25
2019-03-08T04:06:38.717Z,72.85
2019-03-08T04:09:10.481Z,72.40
2019-03-08T04:11:37.918Z,70.78
2019-03-08T04:14:05.478Z,70.45
2019-03-08T04:16:32.667Z,70.34
2019-03-08T04:19:01.123Z,71.01
2019-03-08T04:21:28.432Z,70.81
2019-03-08T04:23:55.633Z,71.41
2019-03-08T04:26:22.782Z,72.21
2019-03-08T04:28:49.964Z,70.25
2019-03-08T04:31:17.588Z,69.83
2019-03-08T04:33:45.016Z,69.64
2019-03-08T04:36:12.218Z,69.09
2019-03-08T04:38:39.410Z,68.07
2019-03-08T04:41:06.585Z,67.82
2019-03-08T04:43:33.796Z,68.02
2019-03-08T04:46:00.999Z,67.80
2019-03-08T04:48:28.177Z,66.60
2019-03-08T04:50:55.593Z,65.87
2019-03-08T04:53:22.788Z,65.65
2019-03-08T04:55:49.948Z,66.32
2019-03-08T04:58:57.996Z,64.59
2019-03-08T05:01:25.475Z,64.88
2019-03-08T05:03:54.823Z,64.55
2019-03-08T05:09:44.885Z,64.11
2019-03-08T05:12:43.898Z,63.43
2019-03-08T05:15:11.088Z,63.89
2019-03-08T05:17:38.156Z,63.32
2019-03-08T05:23:06.920Z,64.62
2019-03-08T05:25:34.090Z,63.46
2019-03-08T05:28:01.162Z,63.94
2019-03-08T05:33:10.781Z,63.44
2019-03-08T05:35:37.919Z,63.71
2019-03-08T05:41:06.703Z,63.10
2019-03-08T05:43:34.033Z,63.31
2019-03-08T05:46:01.198Z,63.00
2019-03-08T05:48:28.429Z,63.87
2019-03-08T05:50:55.469Z,64.58
2019-03-08T05:53:22.663Z,64.10
2019-03-08T05:55:49.855Z,64.72
2019-03-08T06:01:18.042Z,63.71
2019-03-08T06:03:45.206Z,65.07
2019-03-08T06:06:12.405Z,64.77
2019-03-08T06:09:20.452Z,65.16
2019-03-08T06:11:47.606Z,64.99
2019-03-08T06:14:21.064Z,65.12
2019-03-08T06:17:36.983Z,64.68
2019-03-08T06:23:18.890Z,64.16
2019-03-08T06:25:57.867Z,64.29
2019-03-08T06:31:04.820Z,64.07
2019-03-08T06:36:33.169Z,64.52
2019-03-08T06:39:00.513Z,65.53
2019-03-08T06:42:14.802Z,64.76
2019-03-08T06:44:41.994Z,64.52
2019-03-08T06:47:09.160Z,64.03
2019-03-08T06:49:36.368Z,64.00
2019-03-08T06:52:03.886Z,63.13
2019-03-08T06:55:12.044Z,62.19
2019-03-08T06:57:39.269Z,62.15
2019-03-08T07:00:49.258Z,61.87
2019-03-08T07:03:16.307Z,61.72
2019-03-08T07:05:43.381Z,62.55
2019-03-08T07:08:10.660Z,61.44
2019-03-08T07:11:19.090Z,61.74
2019-03-08T07:13:46.770Z,61.39
2019-03-08T07:16:33.499Z,60.70
2019-03-08T07:19:00.736Z,60.76
2019-03-08T07:21:47.529Z,60.89
2019-03-08T07:24:53.793Z,60.84
2019-03-08T07:27:28.280Z,61.53
2019-03-08T07:30:15.077Z,60.88
2019-03-08T07:33:01.794Z,61.27
2019-03-08T07:35:36.245Z,61.20
2019-03-08T07:38:22.969Z,61.80
2019-03-08T07:40:59.981Z,60.40
2019-03-08T07:43:46.710Z,59.89
2019-03-08T07:46:54.756Z,60.20
2019-03-08T07:49:41.496Z,61.10
2019-03-08T07:52:49.617Z,60.92
2019-03-08T07:55:35.360Z,61.55
2019-03-08T08:01:36.278Z,61.33
2019-03-08T08:04:23.034Z,61.35
2019-03-08T08:07:09.880Z,60.35
2019-03-08T08:09:56.638Z,60.15
2019-03-08T08:13:04.996Z,60.33
2019-03-08T08:15:51.745Z,61.07
2019-03-08T08:18:38.489Z,62.54
2019-03-08T08:21:21.909Z,61.83
2019-03-08T08:24:08.823Z,61.73
2019-03-08T08:30:16.180Z,62.26
2019-03-08T08:33:02.936Z,63.13
2019-03-08T08:35:49.720Z,62.86
2019-03-08T08:38:26.119Z,63.91
2019-03-08T08:41:20.913Z,64.60
2019-03-08T08:43:55.639Z,65.31
2019-03-08T08:46:42.391Z,65.83
2019-03-08T08:52:06.957Z,66.57
2019-03-08T08:54:46.293Z,67.00
2019-03-08T08:57:33.061Z,67.32
2019-03-08T09:00:07.271Z,67.89
2019-03-08T09:05:56.485Z,68.16
2019-03-08T09:08:53.545Z,68.30
2019-03-08T09:11:45.810Z,69.24
2019-03-08T09:15:09.973Z,68.93
2019-03-08T09:17:56.742Z,69.36
2019-03-08T09:20:43.517Z,69.65
2019-03-08T09:23:38.084Z,69.41
2019-03-08T09:26:24.882Z,70.36
2019-03-08T09:29:40.971Z,69.79
2019-03-08T09:33:01.131Z,70.36
2019-03-08T09:35:47.923Z,69.75
2019-03-08T09:38:44.445Z,70.18
2019-03-08T09:41:52.530Z,70.19
2019-03-08T09:44:39.538Z,70.22
2019-03-08T09:47:26.969Z,68.71
2019-03-08T09:53:21.897Z,70.13
2019-03-08T09:56:08.697Z,69.73
2019-03-08T10:01:57.040Z,70.48
2019-03-08T10:04:43.979Z,70.85
2019-03-08T10:07:25.487Z,70.40
2019-03-08T10:10:12.237Z,70.37
2019-03-08T10:13:11.383Z,70.02
2019-03-08T10:15:41.523Z,69.70
2019-03-08T10:18:28.190Z,70.17
2019-03-08T10:24:48.715Z,70.65
2019-03-08T10:27:38.404Z,69.45
2019-03-08T10:36:25.641Z,62.17
2019-03-08T10:42:26.055Z,55.96
2019-03-08T10:45:34.045Z,53.95
2019-03-08T10:48:20.941Z,50.56
2019-03-08T10:51:28.840Z,49.96
2019-03-08T10:57:17.151Z,50.15
2019-03-08T11:03:12.259Z,51.90
2019-03-08T11:05:58.889Z,51.92
2019-03-08T11:08:32.803Z,52.44
2019-03-08T11:11:19.537Z,52.77
2019-03-08T11:14:06.578Z,52.17
2019-03-08T11:16:39.797Z,52.86
2019-03-08T11:19:27.664Z,51.70
2019-03-08T11:22:32.299Z,51.05
2019-03-08T11:25:19.086Z,50.44
2019-03-08T11:31:34.917Z,49.35
2019-03-08T11:34:14.463Z,48.49
2019-03-08T11:36:46.034Z,48.78
2019-03-08T11:39:40.667Z,47.80
2019-03-08T11:42:24.668Z,48.76
2019-03-08T11:45:11.712Z,48.94
2019-03-08T11:50:59.944Z,48.78
2019-03-08T11:54:07.938Z,49.11
2019-03-08T11:56:55.703Z,49.59
2019-03-08T11:59:35.674Z,50.91
2019-03-08T12:02:15.883Z,50.26
2019-03-08T12:08:29.204Z,51.69
2019-03-08T12:11:35.409Z,53.14
2019-03-08T12:14:43.448Z,52.48
2019-03-08T12:17:30.256Z,52.75
2019-03-08T12:20:17.031Z,52.99
2019-03-08T12:26:23.999Z,52.46
2019-03-08T12:29:11.040Z,50.67
2019-03-08T12:32:19.230Z,49.94
2019-03-08T12:38:40.635Z,49.81
2019-03-08T12:41:27.801Z,47.73
2019-03-08T12:44:14.654Z,48.22
2019-03-08T12:50:21.616Z,47.01
2019-03-08T12:53:08.508Z,46.04
2019-03-08T12:55:47.625Z,45.67
2019-03-08T12:58:53.823Z,46.02
2019-03-08T13:02:00.351Z,46.31
2019-03-08T13:04:33.599Z,45.14
2019-03-08T13:07:20.779Z,46.50
2019-03-08T13:12:47.289Z,45.55
2019-03-08T13:24:38.559Z,49.47
2019-03-08T13:27:05.777Z,49.59
2019-03-08T13:34:52.415Z,48.34
2019-03-08T13:37:31.675Z,48.91
2019-03-08T13:39:58.877Z,50.27
2019-03-08T13:43:18.209Z,50.58
2019-03-08T13:45:58.455Z,50.76
2019-03-08T13:49:06.457Z,50.79
2019-03-08T13:51:33.668Z,47.86
2019-03-08T13:54:41.712Z,47.40
2019-03-08T14:06:05.668Z,47.94
2019-03-08T14:08:32.922Z,46.88
2019-03-08T14:11:22.170Z,47.93
2019-03-08T14:19:51.784Z,47.62
2019-03-08T14:22:18.932Z,48.44
2019-03-08T14:25:26.366Z,47.75
2019-03-08T14:31:27.503Z,47.61
2019-03-08T14:39:56.926Z,46.28
2019-03-08T14:45:46.358Z,47.15
2019-03-08T14:48:13.510Z,47.27
2019-03-08T14:53:41.632Z,46.74
2019-03-08T14:56:08.998Z,44.38
2019-03-08T14:58:40.233Z,44.09
2019-03-08T15:07:54.734Z,44.12
2019-03-08T15:10:21.976Z,43.84
2019-03-08T15:15:50.490Z,44.25
2019-03-08T15:21:07.172Z,45.22
2019-03-08T15:27:06.727Z,46.82
2019-03-08T15:32:12.441Z,49.20
2019-03-08T15:34:39.596Z,49.89
2019-03-08T15:46:11.272Z,52.22
2019-03-08T15:48:38.488Z,52.99
2019-03-08T15:51:05.672Z,52.72
2019-03-08T15:56:34.532Z,52.83
2019-03-08T15:59:03.301Z,52.37
2019-03-08T16:01:50.612Z,52.72
2019-03-08T16:04:18.997Z,52.62
2019-03-08T16:07:06.643Z,52.89
2019-03-08T16:09:33.845Z,52.32
2019-03-08T16:12:41.874Z,52.34
2019-03-08T16:18:44.003Z,53.77
2019-03-08T16:21:18.004Z,54.84
2019-03-08T16:23:45.224Z,54.67
2019-03-08T16:26:12.736Z,55.48
2019-03-08T16:28:59.419Z,55.58
2019-03-08T16:31:46.536Z,56.02
2019-03-08T16:37:54.409Z,56.21
2019-03-08T16:41:00.623Z,55.75
2019-03-08T16:44:06.917Z,56.48
2019-03-08T16:47:13.784Z,57.40
2019-03-08T16:50:13.453Z,58.08
2019-03-08T16:53:19.686Z,58.48
2019-03-08T16:56:05.597Z,58.72
2019-03-08T16:59:11.818Z,58.90
2019-03-08T17:01:58.614Z,60.26
2019-03-08T17:04:40.266Z,60.77
2019-03-08T17:07:27.071Z,61.44
2019-03-08T17:10:14.482Z,62.12
2019-03-08T17:13:22.846Z,61.72
2019-03-08T17:16:06.943Z,61.44
2019-03-08T17:18:46.190Z,61.28
2019-03-08T17:21:32.932Z,61.95
2019-03-08T17:24:41.254Z,61.72
2019-03-08T17:30:42.663Z,61.57
2019-03-08T17:33:29.524Z,62.21
2019-03-08T17:39:18.006Z,64.71
2019-03-08T17:48:07.165Z,66.12
2019-03-08T17:50:53.814Z,66.83
2019-03-08T17:53:40.871Z,67.47
2019-03-08T17:56:48.886Z,67.52
2019-03-08T17:59:35.755Z,65.42
2019-03-08T18:02:43.766Z,65.57
2019-03-08T18:05:30.564Z,66.10
2019-03-08T18:08:15.629Z,65.86
2019-03-08T18:11:21.903Z,66.46
2019-03-08T18:14:09.528Z,66.73
2019-03-08T18:16:48.395Z,65.79
2019-03-08T18:19:54.670Z,66.10
2019-03-08T18:22:41.586Z,65.61
2019-03-08T18:25:28.641Z,64.61
2019-03-08T18:28:36.664Z,65.78
2019-03-08T18:31:23.449Z,65.53
2019-03-08T18:34:31.466Z,65.61
2019-03-08T18:40:52.480Z,66.55
2019-03-08T18:43:39.541Z,66.94
2019-03-08T18:46:26.343Z,67.32
2019-03-08T18:49:32.552Z,67.98
2019-03-08T18:52:39.103Z,66.80
2019-03-08T18:58:26.182Z,65.89
2019-03-08T19:01:12.961Z,66.32
2019-03-08T19:07:14.571Z,65.57
2019-03-08T19:13:08.738Z,65.48
2019-03-08T19:18:57.108Z,65.77
2019-03-08T19:22:12.802Z,65.34
2019-03-08T19:24:59.606Z,64.72
2019-03-08T19:27:46.907Z,65.04
2019-03-08T19:33:35.503Z,64.74
2019-03-08T19:36:22.438Z,64.66
2019-03-08T19:39:09.254Z,64.67
2019-03-08T19:41:56.024Z,64.89
2019-03-08T19:44:43.349Z,64.58
2019-03-08T19:47:30.109Z,63.65
2019-03-08T19:50:17.313Z,64.21
2019-03-08T19:53:16.853Z,64.75
2019-03-08T19:56:03.897Z,64.83
2019-03-08T19:58:39.336Z,64.99
2019-03-08T20:01:26.420Z,64.51
2019-03-08T20:04:13.144Z,63.78
2019-03-08T20:06:59.946Z,63.77
2019-03-08T20:19:10.056Z,64.64
2019-03-08T20:21:56.823Z,64.51
2019-03-08T20:24:43.982Z,64.75
2019-03-08T20:27:30.757Z,65.20
2019-03-08T20:30:17.563Z,64.22
2019-03-08T20:33:04.286Z,64.10
2019-03-08T20:36:12.244Z,64.33
2019-03-08T20:38:59.012Z,64.37
2019-03-08T20:42:07.059Z,64.90
2019-03-08T20:44:38.532Z,65.05
2019-03-08T20:47:12.213Z,65.97
2019-03-08T20:49:39.389Z,66.39
2019-03-08T20:52:47.443Z,65.91
2019-03-08T20:55:14.637Z,65.46
2019-03-08T20:57:42.423Z,64.57
2019-03-08T21:00:51.364Z,65.02
2019-03-08T21:03:18.605Z,65.48
2019-03-08T21:05:45.818Z,65.93
2019-03-08T21:08:25.134Z,66.04
2019-03-08T21:10:52.485Z,66.28
2019-03-08T21:13:19.697Z,66.46
2019-03-08T21:15:47.367Z,66.63
2019-03-08T21:18:14.589Z,66.75
2019-03-08T21:29:36.812Z,67.67
2019-03-08T21:38:37.768Z,67.70
2019-03-08T21:41:27.099Z,67.81
2019-03-08T21:46:55.326Z,68.26
2019-03-08T21:50:03.348Z,67.58
2019-03-08T21:55:32.417Z,66.27
2019-03-08T21:58:31.433Z,66.92
2019-03-08T22:00:58.633Z,67.31
2019-03-08T22:03:25.854Z,67.74
2019-03-08T22:05:53.056Z,67.86
2019-03-08T22:08:28.300Z,68.27
2019-03-08T22:11:12.746Z,68.34
2019-03-08T22:13:39.924Z,68.50
2019-03-08T22:16:07.177Z,68.62
2019-03-08T22:19:36.889Z,68.75
2019-03-08T22:22:04.176Z,68.87
2019-03-08T22:25:12.438Z,68.69
2019-03-08T22:27:39.901Z,68.71
2019-03-08T22:33:25.219Z,68.25
2019-03-08T22:35:52.670Z,67.26
2019-03-08T22:38:51.749Z,67.22
2019-03-08T22:41:38.380Z,66.73
2019-03-08T22:44:05.632Z,65.98
2019-03-08T22:49:32.077Z,65.53
2019-03-08T22:51:59.282Z,64.86
2019-03-08T22:57:28.001Z,65.84
2019-03-08T22:59:55.233Z,65.42
2019-03-08T23:08:25.436Z,66.02
2019-03-08T23:10:52.586Z,65.46
2019-03-08T23:13:19.894Z,65.61
2019-03-08T23:15:47.137Z,65.69
2019-03-08T23:18:15.346Z,66.34
2019-03-08T23:20:42.652Z,66.68
2019-03-08T23:23:17.816Z,67.44
2019-03-08T23:25:45.017Z,67.57
2019-03-08T23:28:31.812Z,67.63
2019-03-08T23:31:38.030Z,67.95
2019-03-08T23:34:05.567Z,68.57
2019-03-08T23:36:33.107Z,69.00
2019-03-08T23:51:46.152Z,67.05
2019-03-08T23:54:13.362Z,67.09
2019-03-08T23:57:00.001Z,66.96
2019-03-08T23:59:27.829Z,66.57
